createdAt,value
2023-05-15T00:01:51.038Z,100047.54
2023-05-15T00:04:17.697Z,100042.69
2023-05-15T00:06:44.382Z,100038.18
2023-05-15T00:09:11.045Z,100037.03
2023-05-15T00:11:37.629Z,100033.98
2023-05-15T00:14:04.339Z,100038.63
2023-05-15T00:16:30.932Z,100034.36
2023-05-15T00:18:57.611Z,100027.74
2023-05-15T00:21:24.366Z,100028.33
2023-05-15T00:23:53.973Z,100025.77
2023-05-15T00:26:20.775Z,100022.68
2023-05-15T00:28:47.369Z,100020.79
2023-05-15T00:31:14.923Z,100016.05
2023-05-15T00:33:41.560Z,100015.98
2023-05-15T00:36:09.780Z,100014.30
2023-05-15T00:38:36.334Z,100012.27
2023-05-15T00:41:06.215Z,100008.40
2023-05-15T00:43:33.430Z,100004.61
2023-05-15T00:46:01.069Z,100003.26
2023-05-15T00:48:29.185Z,99998.55
2023-05-15T00:50:59.005Z,99997.52
2023-05-15T00:53:27.208Z,99997.84
2023-05-15T00:55:57.918Z,99993.36
2023-05-15T00:58:26.845Z,99992.01
2023-05-15T01:00:53.898Z,99984.51
2023-05-15T01:03:20.829Z,99983.55
2023-05-15T01:05:47.487Z,99985.60
2023-05-15T01:08:32.896Z,99990.23
2023-05-15T01:11:00.266Z,99993.97
2023-05-15T01:13:26.877Z,99994.38
2023-05-15T01:15:55.801Z,99990.09
2023-05-15T01:18:22.380Z,99983.11
2023-05-15T01:21:10.354Z,99982.84
2023-05-15T01:23:58.380Z,99985.66
2023-05-15T01:26:58.145Z,99981.48
2023-05-15T01:29:30.662Z,99983.48
2023-05-15T01:32:02.789Z,99979.98
2023-05-15T01:34:46.122Z,99970.39
2023-05-15T01:37:17.476Z,99954.13
2023-05-15T01:39:47.829Z,99946.19
2023-05-15T01:42:17.925Z,99943.20
2023-05-15T01:44:54.674Z,99939.14
2023-05-15T01:47:38.392Z,99935.21
2023-05-15T01:50:08.251Z,99942.33
2023-05-15T01:52:40.727Z,99941.16
2023-05-15T01:55:08.725Z,99941.06
2023-05-15T01:57:36.469Z,99939.69
2023-05-15T02:00:04.070Z,99939.10
2023-05-15T02:02:42.256Z,99936.77
2023-05-15T02:05:09.524Z,99929.74
2023-05-15T02:07:36.285Z,99919.42
2023-05-15T02:10:03.382Z,99911.39
2023-05-15T02:12:31.627Z,99906.64
2023-05-15T02:14:59.662Z,99898.66
2023-05-15T02:17:34.754Z,99895.92
2023-05-15T02:20:01.318Z,99891.19
2023-05-15T02:22:27.842Z,99890.67
2023-05-15T02:24:54.467Z,99891.71
2023-05-15T02:27:27.039Z,99891.21
2023-05-15T02:30:30.334Z,99892.27
2023-05-15T02:33:17.960Z,99890.34
2023-05-15T02:35:56.862Z,99890.40
2023-05-15T02:38:30.083Z,99890.19
2023-05-15T02:40:58.031Z,99888.98
2023-05-15T02:43:26.201Z,99887.61
2023-05-15T02:45:54.133Z,99887.90
2023-05-15T02:48:21.762Z,99888.45
2023-05-15T02:50:48.448Z,99884.05
2023-05-15T02:53:16.111Z,99868.99
2023-05-15T02:55:42.695Z,99859.63
2023-05-15T02:58:09.668Z,99860.31
2023-05-15T03:00:36.189Z,99857.11
2023-05-15T03:03:02.771Z,99853.61
2023-05-15T03:05:29.389Z,99847.27
2023-05-15T03:07:57.352Z,99839.50
2023-05-15T03:10:24.258Z,99836.05
2023-05-15T03:12:50.792Z,99832.69
2023-05-15T03:15:17.868Z,99824.90
2023-05-15T03:17:44.788Z,99822.92
2023-05-15T03:20:11.434Z,99819.95
2023-05-15T03:22:38.046Z,99810.11
2023-05-15T03:25:04.888Z,99799.73
2023-05-15T03:27:31.465Z,99792.98
2023-05-15T03:29:58.179Z,99786.71
2023-05-15T03:32:24.842Z,99785.09
2023-05-15T03:34:51.377Z,99782.45
2023-05-15T03:37:17.997Z,99776.06
2023-05-15T03:39:44.574Z,99766.08
2023-05-15T03:42:11.388Z,99760.35
2023-05-15T03:44:37.910Z,99759.45
2023-05-15T03:47:04.715Z,99759.46
2023-05-15T03:49:31.287Z,99759.40
2023-05-15T03:51:57.896Z,99756.31
2023-05-15T03:54:24.481Z,99745.31
2023-05-15T03:56:52.905Z,99742.67
2023-05-15T03:59:19.427Z,99743.30
2023-05-15T04:02:02.954Z,99739.83
2023-05-15T04:04:30.559Z,99738.10
2023-05-15T04:06:57.236Z,99736.27
2023-05-15T04:09:23.777Z,99735.36
2023-05-15T04:11:50.298Z,99728.00
2023-05-15T04:14:16.803Z,99731.85
2023-05-15T04:16:43.475Z,99728.83
2023-05-15T04:19:10.264Z,99729.32
2023-05-15T04:21:36.807Z,99733.45
2023-05-15T04:24:03.507Z,99733.58
2023-05-15T04:26:31.625Z,99732.27
2023-05-15T04:29:03.907Z,99729.11
2023-05-15T04:31:31.847Z,99722.45
2023-05-15T04:33:58.677Z,99715.08
2023-05-15T04:36:25.418Z,99707.21
2023-05-15T04:38:52.107Z,99707.91
2023-05-15T04:41:18.649Z,99705.63
2023-05-15T04:43:45.886Z,99702.39
2023-05-15T04:46:12.754Z,99702.41
2023-05-15T04:48:39.678Z,99697.21
2023-05-15T04:51:07.477Z,99693.66
2023-05-15T04:53:34.241Z,99686.34
2023-05-15T04:56:04.078Z,99682.95
2023-05-15T04:58:30.622Z,99675.72
2023-05-15T05:00:57.170Z,99680.40
2023-05-15T05:03:23.802Z,99682.78
2023-05-15T05:05:50.326Z,99684.14
2023-05-15T05:08:16.811Z,99679.72
2023-05-15T05:10:43.349Z,99673.96
2023-05-15T05:13:09.898Z,99672.39
2023-05-15T05:15:37.135Z,99670.19
2023-05-15T05:18:03.972Z,99669.80
2023-05-15T05:20:30.645Z,99673.29
2023-05-15T05:22:57.216Z,99673.44
2023-05-15T05:25:24.056Z,99666.88
2023-05-15T05:27:50.874Z,99664.14
2023-05-15T05:30:17.564Z,99664.06
2023-05-15T05:32:44.138Z,99663.36
2023-05-15T05:35:10.843Z,99665.03
2023-05-15T05:37:38.856Z,99661.88
2023-05-15T05:40:08.804Z,99661.88
2023-05-15T05:42:35.550Z,99661.50
2023-05-15T05:45:02.123Z,99660.09
2023-05-15T05:47:28.676Z,99667.73
2023-05-15T05:49:55.369Z,99670.11
2023-05-15T05:52:21.979Z,99673.50
2023-05-15T05:54:48.696Z,99663.48
2023-05-15T05:57:15.507Z,99665.45
2023-05-15T05:59:42.169Z,99666.15
2023-05-15T06:02:09.268Z,99668.84
2023-05-15T06:04:36.045Z,99671.91
2023-05-15T06:07:03.330Z,99672.77
2023-05-15T06:09:29.941Z,99678.20
2023-05-15T06:11:56.489Z,99677.47
2023-05-15T06:14:23.309Z,99675.53
2023-05-15T06:16:50.187Z,99677.16
2023-05-15T06:19:16.948Z,99686.18
2023-05-15T06:21:43.842Z,99689.44
2023-05-15T06:24:10.522Z,99689.68
2023-05-15T06:26:37.212Z,99689.70
2023-05-15T06:29:03.719Z,99682.86
2023-05-15T06:31:30.366Z,99680.15
2023-05-15T06:33:56.889Z,99678.48
2023-05-15T06:36:24.035Z,99678.69
2023-05-15T06:38:50.583Z,99680.55
2023-05-15T06:41:17.105Z,99682.11
2023-05-15T06:43:43.660Z,99681.92
2023-05-15T06:46:10.399Z,99678.88
2023-05-15T06:48:37.278Z,99680.73
2023-05-15T06:51:03.871Z,99679.27
2023-05-15T06:53:30.704Z,99676.25
2023-05-15T06:55:57.300Z,99677.71
2023-05-15T06:58:24.297Z,99679.98
2023-05-15T07:00:52.045Z,99681.14
2023-05-15T07:03:19.517Z,99676.02
2023-05-15T07:05:46.453Z,99678.85
2023-05-15T07:08:12.983Z,99680.47
2023-05-15T07:10:39.527Z,99679.08
2023-05-15T07:13:06.063Z,99681.02
2023-05-15T07:15:32.589Z,99677.13
2023-05-15T07:17:59.243Z,99679.92
2023-05-15T07:20:28.554Z,99679.48
2023-05-15T07:22:57.142Z,99678.11
2023-05-15T07:25:25.008Z,99677.75
2023-05-15T07:27:52.078Z,99677.16
2023-05-15T07:30:19.033Z,99681.39
2023-05-15T07:32:48.745Z,99682.49
2023-05-15T07:35:15.808Z,99680.52
2023-05-15T07:37:42.559Z,99683.90
2023-05-15T07:40:09.504Z,99682.99
2023-05-15T07:42:36.159Z,99683.64
2023-05-15T07:45:03.305Z,99680.19
2023-05-15T07:47:30.058Z,99680.92
2023-05-15T07:49:57.015Z,99681.68
2023-05-15T07:52:23.709Z,99684.00
2023-05-15T07:54:50.292Z,99688.58
2023-05-15T07:57:16.995Z,99685.78
2023-05-15T07:59:43.612Z,99687.51
2023-05-15T08:02:10.391Z,99684.14
2023-05-15T08:04:37.038Z,99675.40
2023-05-15T08:07:03.809Z,99662.85
2023-05-15T08:09:30.420Z,99655.79
2023-05-15T08:11:57.528Z,99650.58
2023-05-15T08:14:24.316Z,99642.05
2023-05-15T08:16:51.727Z,99639.48
2023-05-15T08:19:19.301Z,99639.95
2023-05-15T08:21:46.393Z,99647.30
2023-05-15T08:24:13.044Z,99650.27
2023-05-15T08:26:39.809Z,99648.65
2023-05-15T08:29:06.467Z,99639.64
2023-05-15T08:31:33.250Z,99634.27
2023-05-15T08:34:00.161Z,99630.08
2023-05-15T08:36:26.996Z,99624.33
2023-05-15T08:38:53.859Z,99620.77
2023-05-15T08:41:39.984Z,99624.52
2023-05-15T08:44:09.501Z,99629.38
2023-05-15T08:46:36.632Z,99627.69
2023-05-15T08:49:18.860Z,99625.44
2023-05-15T08:51:45.833Z,99626.17
2023-05-15T08:54:12.724Z,99623.89
2023-05-15T08:56:39.585Z,99628.04
2023-05-15T08:59:06.512Z,99631.48
2023-05-15T09:01:33.963Z,99628.09
2023-05-15T09:04:00.685Z,99625.43
2023-05-15T09:06:28.309Z,99631.80
2023-05-15T09:08:56.794Z,99633.83
2023-05-15T09:11:26.405Z,99637.55
2023-05-15T09:13:53.585Z,99638.41
2023-05-15T09:16:21.600Z,99633.29
2023-05-15T09:18:50.090Z,99633.92
2023-05-15T09:21:22.823Z,99636.45
2023-05-15T09:23:49.527Z,99631.47
2023-05-15T09:26:16.696Z,99629.00
2023-05-15T09:28:43.553Z,99622.58
2023-05-15T09:31:11.203Z,99618.58
2023-05-15T09:33:40.193Z,99613.63
2023-05-15T09:36:07.951Z,99610.45
2023-05-15T09:38:43.217Z,99604.83
2023-05-15T09:41:09.884Z,99609.29
2023-05-15T09:43:41.368Z,99610.46
2023-05-15T09:46:08.716Z,99613.02
2023-05-15T09:48:35.964Z,99613.81
2023-05-15T09:51:02.998Z,99614.53
2023-05-15T09:53:30.524Z,99618.11
2023-05-15T09:55:57.181Z,99612.08
2023-05-15T09:58:23.843Z,99604.91
2023-05-15T10:00:50.472Z,99599.52
2023-05-15T10:03:19.234Z,99597.80
2023-05-15T10:05:46.066Z,99593.14
2023-05-15T10:08:12.995Z,99592.48
2023-05-15T10:10:39.800Z,99582.65
2023-05-15T10:13:08.303Z,99579.45
2023-05-15T10:15:35.377Z,99573.97
2023-05-15T10:18:04.798Z,99566.71
2023-05-15T10:20:35.378Z,99565.02
2023-05-15T10:23:04.786Z,99570.02
2023-05-15T10:25:55.852Z,99563.96
2023-05-15T10:28:23.022Z,99558.58
2023-05-15T10:30:49.746Z,99550.89
2023-05-15T10:33:16.903Z,99556.66
2023-05-15T10:35:44.402Z,99561.33
2023-05-15T10:38:11.817Z,99562.17
2023-05-15T10:40:41.046Z,99565.15
2023-05-15T10:43:10.183Z,99568.71
2023-05-15T10:45:37.083Z,99575.73
2023-05-15T10:48:06.168Z,99577.34
2023-05-15T10:50:33.252Z,99581.87
2023-05-15T10:53:00.787Z,99578.17
2023-05-15T10:55:27.414Z,99578.39
2023-05-15T10:57:54.981Z,99577.75
2023-05-15T11:00:26.937Z,99575.20
2023-05-15T11:02:57.007Z,99577.40
2023-05-15T11:05:24.414Z,99583.27
2023-05-15T11:08:15.992Z,99576.30
2023-05-15T11:10:42.744Z,99578.86
2023-05-15T11:13:09.451Z,99580.88
2023-05-15T11:15:43.300Z,99580.77
2023-05-15T11:18:10.048Z,99582.48
2023-05-15T11:20:41.734Z,99583.05
2023-05-15T11:23:08.904Z,99582.58
2023-05-15T11:25:36.769Z,99580.48
2023-05-15T11:28:04.816Z,99582.18
2023-05-15T11:30:39.672Z,99577.01
2023-05-15T11:33:13.378Z,99573.71
2023-05-15T11:35:49.453Z,99570.56
2023-05-15T11:38:18.098Z,99567.13
2023-05-15T11:40:47.630Z,99559.45
2023-05-15T11:43:30.972Z,99559.60
2023-05-15T11:46:04.358Z,99564.09
2023-05-15T11:48:36.107Z,99559.16
2023-05-15T11:51:03.139Z,99556.93
2023-05-15T11:53:31.212Z,99558.70
2023-05-15T11:55:59.723Z,99557.13
2023-05-15T11:58:26.943Z,99554.95
2023-05-15T12:00:54.243Z,99554.33
2023-05-15T12:03:26.550Z,99551.45
2023-05-15T12:05:59.524Z,99554.51
2023-05-15T12:08:32.468Z,99546.77
2023-05-15T12:11:00.713Z,99546.59
2023-05-15T12:13:27.457Z,99543.50
2023-05-15T12:15:56.214Z,99545.42
2023-05-15T12:18:23.216Z,99542.67
2023-05-15T12:20:53.036Z,99539.05
2023-05-15T12:23:21.870Z,99541.09
2023-05-15T12:25:50.286Z,99549.63
2023-05-15T12:28:17.321Z,99546.98
2023-05-15T12:30:44.420Z,99554.95
2023-05-15T12:33:11.358Z,99554.77
2023-05-15T12:35:43.740Z,99548.57
2023-05-15T12:38:15.829Z,99544.52
2023-05-15T12:40:44.094Z,99545.44
2023-05-15T12:43:11.272Z,99539.73
2023-05-15T12:45:38.856Z,99530.14
2023-05-15T12:48:05.981Z,99529.64
2023-05-15T12:50:34.249Z,99522.13
2023-05-15T12:53:02.583Z,99527.40
2023-05-15T12:55:34.004Z,99520.91
2023-05-15T12:58:04.455Z,99518.29
2023-05-15T13:00:34.454Z,99516.36
2023-05-15T13:03:01.753Z,99516.23
2023-05-15T13:05:32.146Z,99513.58
2023-05-15T13:08:07.551Z,99514.64
2023-05-15T13:10:37.176Z,99510.63
2023-05-15T13:13:04.091Z,99507.47
2023-05-15T13:15:39.707Z,99502.48
2023-05-15T13:18:07.406Z,99497.83
2023-05-15T13:20:35.506Z,99496.03
2023-05-15T13:23:02.465Z,99490.60
2023-05-15T13:25:32.007Z,99490.05
2023-05-15T13:28:00.624Z,99481.95
2023-05-15T13:30:28.532Z,99481.44
2023-05-15T13:32:55.988Z,99485.20
2023-05-15T13:35:23.586Z,99486.05
2023-05-15T13:37:50.451Z,99487.94
2023-05-15T13:40:17.150Z,99487.39
2023-05-15T13:42:44.622Z,99477.84
2023-05-15T13:45:15.930Z,99470.93
2023-05-15T13:47:43.832Z,99471.12
2023-05-15T13:50:12.761Z,99472.41
2023-05-15T13:52:41.066Z,99463.38
2023-05-15T13:55:09.807Z,99466.84
2023-05-15T13:57:37.893Z,99462.77
2023-05-15T14:00:13.331Z,99461.55
2023-05-15T14:02:41.877Z,99465.63
2023-05-15T14:05:13.738Z,99462.95
2023-05-15T14:07:41.404Z,99467.31
2023-05-15T14:10:08.647Z,99475.98
2023-05-15T14:12:38.127Z,99474.11
2023-05-15T14:15:05.217Z,99476.39
2023-05-15T14:17:31.926Z,99469.27
2023-05-15T14:19:58.681Z,99471.85
2023-05-15T14:22:25.537Z,99485.42
2023-05-15T14:24:53.222Z,99484.16
2023-05-15T14:27:20.327Z,99464.52
2023-05-15T14:29:48.878Z,99453.31
2023-05-15T14:32:16.385Z,99451.52
2023-05-15T14:34:43.304Z,99450.49
2023-05-15T14:37:10.348Z,99446.64
2023-05-15T14:39:37.242Z,99452.39
2023-05-15T14:42:04.440Z,99461.41
2023-05-15T14:44:31.158Z,99464.16
2023-05-15T14:47:11.073Z,99463.06
2023-05-15T14:49:38.047Z,99455.42
2023-05-15T14:52:09.047Z,99446.81
2023-05-15T14:54:36.435Z,99428.51
2023-05-15T14:57:04.076Z,99409.06
2023-05-15T14:59:31.034Z,99392.84
2023-05-15T15:01:58.157Z,99389.13
2023-05-15T15:04:26.619Z,99379.05
2023-05-15T15:06:56.762Z,99365.30
2023-05-15T15:09:24.041Z,99372.80
2023-05-15T15:11:51.279Z,99362.89
2023-05-15T15:14:17.960Z,99375.75
2023-05-15T15:16:46.129Z,99386.42
2023-05-15T15:19:13.964Z,99392.48
2023-05-15T15:21:40.895Z,99400.29
2023-05-15T15:24:07.668Z,99410.14
2023-05-15T15:26:34.354Z,99403.67
2023-05-15T15:29:01.203Z,99405.27
2023-05-15T15:31:29.770Z,99414.14
2023-05-15T15:33:57.697Z,99424.57
2023-05-15T15:36:25.501Z,99426.67
2023-05-15T15:38:52.366Z,99426.60
2023-05-15T15:41:21.100Z,99432.81
2023-05-15T15:43:47.974Z,99433.38
2023-05-15T15:46:14.673Z,99429.71
2023-05-15T15:48:41.475Z,99427.95
2023-05-15T15:51:08.465Z,99424.77
2023-05-15T15:53:35.304Z,99422.36
2023-05-15T15:56:01.997Z,99421.05
2023-05-15T15:58:29.901Z,99422.48
2023-05-15T16:00:57.728Z,99422.27
2023-05-15T16:03:24.890Z,99425.83
2023-05-15T16:05:51.916Z,99431.43
2023-05-15T16:08:18.764Z,99427.61
2023-05-15T16:10:45.530Z,99421.90
2023-05-15T16:13:12.330Z,99410.48
2023-05-15T16:15:38.880Z,99402.84
2023-05-15T16:18:05.644Z,99400.58
2023-05-15T16:20:33.589Z,99401.46
2023-05-15T16:23:01.756Z,99406.38
2023-05-15T16:25:28.364Z,99406.33
2023-05-15T16:27:55.009Z,99406.11
2023-05-15T16:30:21.807Z,99403.45
2023-05-15T16:32:49.054Z,99398.11
2023-05-15T16:35:15.855Z,99398.52
2023-05-15T16:37:42.477Z,99403.48
2023-05-15T16:40:09.853Z,99397.66
2023-05-15T16:42:38.033Z,99390.73
2023-05-15T16:45:05.706Z,99394.79
2023-05-15T16:47:32.532Z,99398.48
2023-05-15T16:49:59.292Z,99400.84
2023-05-15T16:52:25.955Z,99399.63
2023-05-15T16:54:52.519Z,99400.02
2023-05-15T16:57:19.124Z,99402.66
2023-05-15T16:59:46.044Z,99400.27
2023-05-15T17:02:12.672Z,99398.59
2023-05-15T17:04:39.290Z,99403.69
2023-05-15T17:07:06.039Z,99406.60
2023-05-15T17:09:32.857Z,99406.19
2023-05-15T17:12:00.706Z,99408.67
2023-05-15T17:14:27.526Z,99404.42
2023-05-15T17:16:56.587Z,99400.55
2023-05-15T17:19:23.268Z,99400.54
2023-05-15T17:21:49.917Z,99402.57
2023-05-15T17:24:16.648Z,99399.11
2023-05-15T17:26:43.279Z,99399.42
2023-05-15T17:29:10.929Z,99404.52
2023-05-15T17:31:38.670Z,99398.08
2023-05-15T17:34:05.490Z,99398.39
2023-05-15T17:36:33.716Z,99399.86
2023-05-15T17:39:00.594Z,99407.88
2023-05-15T17:41:27.198Z,99421.48
2023-05-15T17:43:53.791Z,99436.25
2023-05-15T17:46:20.659Z,99444.42
2023-05-15T17:48:47.362Z,99447.34
2023-05-15T17:51:13.991Z,99448.67
2023-05-15T17:53:40.826Z,99445.39
2023-05-15T17:56:08.128Z,99442.62
2023-05-15T17:58:34.727Z,99443.31
2023-05-15T18:01:01.530Z,99446.36
2023-05-15T18:03:28.892Z,99438.09
2023-05-15T18:05:58.015Z,99428.95
2023-05-15T18:08:24.708Z,99430.80
2023-05-15T18:10:51.783Z,99430.69
2023-05-15T18:13:18.866Z,99426.66
2023-05-15T18:15:45.822Z,99421.20
2023-05-15T18:18:12.595Z,99419.92
2023-05-15T18:20:39.409Z,99421.70
2023-05-15T18:23:06.153Z,99420.27
2023-05-15T18:25:36.785Z,99418.36
2023-05-15T18:28:04.405Z,99418.89
2023-05-15T18:30:31.248Z,99421.13
2023-05-15T18:33:00.239Z,99419.55
2023-05-15T18:35:27.170Z,99421.10
2023-05-15T18:37:54.225Z,99424.32
2023-05-15T18:40:21.511Z,99422.82
2023-05-15T18:42:48.024Z,99423.04
2023-05-15T18:45:16.154Z,99427.89
2023-05-15T18:47:42.713Z,99428.91
2023-05-15T18:50:09.672Z,99435.73
2023-05-15T18:52:36.294Z,99440.75
2023-05-15T18:55:03.234Z,99445.08
2023-05-15T18:57:30.139Z,99446.80
2023-05-15T18:59:56.797Z,99457.46
2023-05-15T19:02:25.859Z,99461.39
2023-05-15T19:04:52.896Z,99460.36
2023-05-15T19:07:19.430Z,99458.17
2023-05-15T19:09:45.968Z,99459.66
2023-05-15T19:12:12.497Z,99466.89
2023-05-15T19:14:39.096Z,99473.02
2023-05-15T19:17:06.021Z,99486.48
2023-05-15T19:19:33.677Z,99496.77
2023-05-15T19:22:00.270Z,99495.69
2023-05-15T19:24:27.198Z,99492.40
2023-05-15T19:26:53.866Z,99495.71
2023-05-15T19:29:20.567Z,99492.04
2023-05-15T19:31:47.151Z,99491.83
2023-05-15T19:34:14.111Z,99489.80
2023-05-15T19:36:40.868Z,99487.63
2023-05-15T19:39:07.506Z,99481.21
2023-05-15T19:41:34.115Z,99481.75
2023-05-15T19:44:00.980Z,99486.23
2023-05-15T19:46:27.730Z,99488.08
2023-05-15T19:48:54.424Z,99483.83
2023-05-15T19:51:21.060Z,99477.65
2023-05-15T19:53:47.607Z,99479.39
2023-05-15T19:56:14.298Z,99477.48
2023-05-15T19:58:41.112Z,99470.30
2023-05-15T20:01:07.844Z,99461.62
2023-05-15T20:03:34.722Z,99455.85
2023-05-15T20:06:02.472Z,99448.96
2023-05-15T20:08:29.828Z,99451.81
2023-05-15T20:10:57.214Z,99462.67
2023-05-15T20:13:24.334Z,99466.40
2023-05-15T20:15:58.104Z,99471.27
2023-05-15T20:18:28.695Z,99477.08
2023-05-15T20:20:55.945Z,99471.52
2023-05-15T20:23:22.605Z,99472.28
2023-05-15T20:25:50.487Z,99470.67
2023-05-15T20:28:17.853Z,99466.49
2023-05-15T20:30:47.392Z,99459.79
2023-05-15T20:33:14.290Z,99454.14
2023-05-15T20:35:42.607Z,99456.41
2023-05-15T20:38:10.535Z,99454.23
2023-05-15T20:40:37.808Z,99443.88
2023-05-15T20:43:04.761Z,99438.14
2023-05-15T20:45:34.103Z,99432.36
2023-05-15T20:48:01.211Z,99438.84
2023-05-15T20:50:28.360Z,99441.75
2023-05-15T20:52:55.730Z,99442.55
2023-05-15T20:55:22.795Z,99441.70
2023-05-15T20:57:50.338Z,99439.05
2023-05-15T21:00:18.130Z,99437.83
2023-05-15T21:02:46.578Z,99438.72
2023-05-15T21:05:14.079Z,99441.68
2023-05-15T21:07:41.155Z,99441.27
2023-05-15T21:10:08.855Z,99439.20
2023-05-15T21:12:35.632Z,99441.31
2023-05-15T21:15:02.952Z,99440.41
2023-05-15T21:17:30.155Z,99431.46
2023-05-15T21:19:58.556Z,99434.61
2023-05-15T21:22:25.315Z,99430.15
2023-05-15T21:24:52.145Z,99431.80
2023-05-15T21:27:19.240Z,99435.03
2023-05-15T21:29:46.527Z,99435.44
2023-05-15T21:32:13.190Z,99433.55
2023-05-15T21:34:40.019Z,99432.75
2023-05-15T21:37:06.933Z,99431.09
2023-05-15T21:39:33.691Z,99429.17
2023-05-15T21:42:00.260Z,99430.48
2023-05-15T21:44:27.059Z,99425.50
2023-05-15T21:46:53.804Z,99426.70
2023-05-15T21:49:20.861Z,99425.55
2023-05-15T21:51:47.547Z,99427.04
2023-05-15T21:54:14.349Z,99429.27
2023-05-15T21:56:41.231Z,99433.77
2023-05-15T21:59:08.138Z,99434.55
2023-05-15T22:01:36.185Z,99434.49
2023-05-15T22:04:03.067Z,99438.71
2023-05-15T22:06:29.765Z,99436.69
2023-05-15T22:08:56.484Z,99433.89
2023-05-15T22:11:23.514Z,99435.23
2023-05-15T22:13:50.055Z,99436.65
2023-05-15T22:16:17.045Z,99437.46
2023-05-15T22:18:45.279Z,99437.60
2023-05-15T22:21:11.960Z,99437.92
2023-05-15T22:23:38.485Z,99438.72
2023-05-15T22:26:05.012Z,99441.23
2023-05-15T22:28:31.524Z,99442.14
2023-05-15T22:30:58.047Z,99439.33
2023-05-15T22:33:24.967Z,99438.48
2023-05-15T22:35:52.737Z,99442.61
2023-05-15T22:38:20.026Z,99441.39
2023-05-15T22:40:52.839Z,99440.38
2023-05-15T22:43:20.274Z,99442.90
2023-05-15T22:45:46.865Z,99445.40
2023-05-15T22:48:15.212Z,99446.05
2023-05-15T22:50:41.813Z,99451.16
2023-05-15T22:53:08.288Z,99456.99
2023-05-15T22:55:35.107Z,99457.48
2023-05-15T22:58:01.608Z,99457.94
2023-05-15T23:00:28.334Z,99458.34
2023-05-15T23:02:55.975Z,99457.42
2023-05-15T23:05:23.517Z,99458.39
2023-05-15T23:07:50.518Z,99458.51
2023-05-15T23:10:17.093Z,99462.45
2023-05-15T23:12:43.654Z,99465.00
2023-05-15T23:15:10.654Z,99467.30
2023-05-15T23:17:37.342Z,99463.46
2023-05-15T23:20:06.754Z,99462.66
2023-05-15T23:22:33.354Z,99461.38
2023-05-15T23:24:59.890Z,99455.25
2023-05-15T23:27:26.436Z,99456.09
2023-05-15T23:29:53.528Z,99459.16
2023-05-15T23:32:20.029Z,99457.45
2023-05-15T23:34:46.722Z,99457.07
2023-05-15T23:37:13.468Z,99453.36
2023-05-15T23:39:40.047Z,99454.67
2023-05-15T23:42:06.700Z,99455.13
2023-05-15T23:44:33.231Z,99452.96
2023-05-15T23:46:59.897Z,99454.92
2023-05-15T23:49:26.497Z,99454.45
2023-05-15T23:51:52.995Z,99449.05
2023-05-15T23:54:19.510Z,99449.80
2023-05-15T23:56:46.444Z,99448.34
2023-05-15T23:59:13.744Z,99446.52
